Time;durP1;ratioP1;P1;durP2;ratioP2;P2;SDS_P1;SDS_P2;PMS_P1;PMS_P2;Temp;Humidity;BMP_temperature;BMP_pressure;BME280_temperature;BME280_humidity;BME280_pressure;Samples;Min_cycle;Max_cycle;Signal;HPM_P1;HPM_P2
2023/06/11 04:04:32;;;;;;;3.60;3.30;;;17.70;99.90;;;;;;5914901;23;20493;-66
2023/06/11 04:06:58;;;;;;;3.43;3.07;;;17.70;99.90;;;;;;5008941;28;20441;-66
2023/06/11 04:09:24;;;;;;;3.67;3.37;;;17.60;99.90;;;;;;4994304;28;20731;-66
2023/06/11 04:11:50;;;;;;;4.23;3.83;;;17.70;99.90;;;;;;5007895;28;20180;-67
2023/06/11 04:14:16;;;;;;;4.17;3.77;;;17.80;99.90;;;;;;5013554;28;20427;-66
2023/06/11 04:16:41;;;;;;;4.30;4.00;;;17.90;99.90;;;;;;5013975;28;20168;-67
2023/06/11 04:19:07;;;;;;;4.03;3.43;;;18.00;99.90;;;;;;5013984;28;20567;-66
2023/06/11 04:21:33;;;;;;;3.50;3.20;;;18.20;99.90;;;;;;5014044;28;20222;-67
2023/06/11 04:23:58;;;;;;;3.57;3.27;;;18.40;99.90;;;;;;4999941;28;20418;-66
2023/06/11 04:26:25;;;;;;;4.70;3.60;;;18.60;99.90;;;;;;4993843;28;20217;-66
2023/06/11 04:28:52;;;;;;;3.20;2.90;;;18.80;99.90;;;;;;4994477;28;20262;-66
2023/06/11 04:31:18;;;;;;;3.00;2.80;;;18.90;99.90;;;;;;4994353;28;20443;-66
2023/06/11 04:33:45;;;;;;;3.20;3.00;;;19.00;99.90;;;;;;4994335;28;20419;-67
2023/06/11 04:36:11;;;;;;;3.57;3.27;;;19.20;99.90;;;;;;4995501;28;20430;-66
2023/06/11 04:38:38;;;;;;;3.40;3.10;;;19.40;99.90;;;;;;4996897;28;20415;-65
2023/06/11 04:41:11;;;;;;;3.23;2.93;;;19.50;99.90;;;;;;4998221;28;20235;-66
2023/06/11 04:43:37;;;;;;;2.77;2.57;;;19.70;99.90;;;;;;4998200;28;20433;-66
2023/06/11 04:46:04;;;;;;;3.50;2.90;;;19.90;99.90;;;;;;5002005;28;20859;-65
2023/06/11 04:48:31;;;;;;;3.30;3.00;;;20.00;99.90;;;;;;4998839;28;20399;-66
2023/06/11 04:51:00;;;;;;;2.47;2.30;;;19.90;99.90;;;;;;4994823;28;20493;-66
2023/06/11 04:53:27;;;;;;;3.20;2.60;;;19.90;99.90;;;;;;4992707;28;20422;-66
2023/06/11 04:55:55;;;;;;;3.47;3.17;;;19.90;99.90;;;;;;4994586;28;20462;-66
2023/06/11 04:58:24;;;;;;;2.30;2.20;;;19.80;99.90;;;;;;4994325;28;20405;-66
2023/06/11 05:00:52;;;;;;;3.57;2.60;;;19.80;99.90;;;;;;5009855;28;20818;-67
2023/06/11 05:03:19;;;;;;;2.67;2.57;;;19.80;99.90;;;;;;5013162;28;20417;-65
2023/06/11 05:05:51;;;;;;;2.97;2.67;;;19.80;99.90;;;;;;5013234;28;21035;-67
2023/06/11 05:08:24;;;;;;;3.23;2.73;;;19.80;99.90;;;;;;5013580;28;20406;-65
2023/06/11 05:10:50;;;;;;;3.10;2.90;;;19.80;99.90;;;;;;5012260;28;20921;-67
2023/06/11 05:13:22;;;;;;;3.40;3.20;;;19.80;99.90;;;;;;5013487;28;20856;-67
2023/06/11 05:15:48;;;;;;;3.23;2.93;;;19.80;99.90;;;;;;5013290;28;20776;-67
2023/06/11 05:18:13;;;;;;;3.80;3.50;;;19.70;99.90;;;;;;5013280;28;20414;-66
2023/06/11 05:20:39;;;;;;;3.37;3.07;;;19.70;99.90;;;;;;5013244;28;20408;-66
2023/06/11 05:23:04;;;;;;;3.10;2.90;;;19.70;99.90;;;;;;5013143;28;20178;-66
2023/06/11 05:25:31;;;;;;;2.90;2.70;;;19.70;99.90;;;;;;5013054;28;20191;-66
2023/06/11 05:28:01;;;;;;;2.20;2.10;;;19.80;99.90;;;;;;5013172;28;20206;-66
2023/06/11 05:30:36;;;;;;;3.47;3.17;;;19.80;99.90;;;;;;5013034;28;20468;-67
2023/06/11 05:33:02;;;;;;;2.70;2.50;;;19.90;99.90;;;;;;5013281;28;20416;-66
2023/06/11 05:35:28;;;;;;;2.80;2.60;;;20.10;99.90;;;;;;5012902;28;20429;-66
2023/06/11 05:37:55;;;;;;;2.73;2.47;;;20.30;99.90;;;;;;5013564;28;20771;-67
2023/06/11 05:40:21;;;;;;;2.57;2.37;;;20.80;99.90;;;;;;5016647;28;20414;-67
2023/06/11 05:42:47;;;;;;;2.50;2.33;;;21.30;99.90;;;;;;5015053;28;20971;-66
2023/06/11 05:45:12;;;;;;;2.97;2.77;;;21.50;99.90;;;;;;5015983;28;20422;-67
2023/06/11 05:47:38;;;;;;;3.10;2.30;;;21.70;99.90;;;;;;5016517;28;20224;-66
2023/06/11 05:50:04;;;;;;;3.07;2.77;;;21.70;99.90;;;;;;5016280;28;20241;-67
2023/06/11 05:52:30;;;;;;;2.80;2.60;;;21.60;99.90;;;;;;5016472;28;20863;-67
2023/06/11 05:54:56;;;;;;;2.80;2.33;;;21.60;99.90;;;;;;5015974;28;20462;-66
2023/06/11 05:57:23;;;;;;;2.80;2.40;;;21.40;99.90;;;;;;5016215;28;20178;-67
2023/06/11 05:59:49;;;;;;;3.30;3.10;;;21.40;99.90;;;;;;5006964;28;20176;-67
2023/06/11 06:02:15;;;;;;;2.63;2.43;;;21.30;99.90;;;;;;4995298;28;20956;-68
2023/06/11 06:04:41;;;;;;;3.07;2.87;;;21.20;99.90;;;;;;4995976;28;20427;-67
2023/06/11 06:07:06;;;;;;;2.33;2.23;;;21.20;99.90;;;;;;4995732;28;20789;-67
2023/06/11 06:09:33;;;;;;;3.03;2.83;;;21.20;99.90;;;;;;4995090;28;20613;-66
2023/06/11 06:11:59;;;;;;;4.03;3.73;;;21.30;99.90;;;;;;4996300;28;20180;-66
2023/06/11 06:14:25;;;;;;;3.30;3.03;;;21.30;99.90;;;;;;4995858;28;20447;-67
2023/06/11 06:16:50;;;;;;;3.03;2.83;;;21.40;99.90;;;;;;4996347;28;20415;-67
2023/06/11 06:19:16;;;;;;;2.33;2.23;;;21.50;99.90;;;;;;4996362;28;20197;-66
2023/06/11 06:21:42;;;;;;;3.07;2.80;;;21.60;99.90;;;;;;5010985;28;20207;-67
2023/06/11 06:24:07;;;;;;;2.67;2.47;;;21.70;99.90;;;;;;4995643;28;20239;-65
2023/06/11 06:26:33;;;;;;;3.07;2.87;;;21.80;99.90;;;;;;5011077;28;20182;-64
2023/06/11 06:28:59;;;;;;;3.17;2.87;;;22.00;99.90;;;;;;4995927;28;20180;-67
2023/06/11 06:31:25;;;;;;;2.93;2.63;;;22.10;99.90;;;;;;4995827;28;20241;-67
2023/06/11 06:33:51;;;;;;;2.60;2.40;;;22.20;99.90;;;;;;4995532;28;20686;-66
2023/06/11 06:36:19;;;;;;;2.93;2.73;;;22.30;99.90;;;;;;4995629;28;20415;-65
2023/06/11 06:38:46;;;;;;;3.40;3.10;;;22.30;99.90;;;;;;4995546;28;20422;-66
2023/06/11 06:41:11;;;;;;;2.83;2.60;;;22.40;99.90;;;;;;4999237;28;20472;-64
2023/06/11 06:43:37;;;;;;;2.97;2.77;;;22.40;99.90;;;;;;5010895;28;20414;-64
2023/06/11 06:46:03;;;;;;;3.70;3.40;;;22.40;99.90;;;;;;5011451;28;20652;-63
2023/06/11 06:48:29;;;;;;;3.10;2.90;;;22.40;99.90;;;;;;4995743;28;20409;-64
2023/06/11 06:50:55;;;;;;;2.80;2.60;;;22.40;99.90;;;;;;4994959;28;20169;-62
2023/06/11 06:53:20;;;;;;;3.13;2.83;;;22.50;99.90;;;;;;4995606;28;20259;-64
2023/06/11 06:55:47;;;;;;;2.77;2.57;;;22.50;99.90;;;;;;4995332;28;20517;-64
2023/06/11 06:58:12;;;;;;;3.53;3.23;;;22.60;99.90;;;;;;5008062;28;20178;-65
2023/06/11 07:00:38;;;;;;;3.07;2.87;;;22.60;99.90;;;;;;5000136;28;20793;-64
2023/06/11 07:03:04;;;;;;;3.97;3.20;;;22.60;99.90;;;;;;4994941;28;20205;-62
2023/06/11 07:05:31;;;;;;;2.77;2.57;;;22.70;99.90;;;;;;4994901;28;20318;-64
2023/06/11 07:07:56;;;;;;;3.20;2.83;;;22.90;99.90;;;;;;4995365;28;20481;-62
2023/06/11 07:10:22;;;;;;;2.73;2.53;;;23.10;99.80;;;;;;4995413;28;20178;-62
2023/06/11 07:12:48;;;;;;;3.90;2.80;;;23.10;99.50;;;;;;4995242;28;20577;-65
2023/06/11 07:15:13;;;;;;;3.40;3.10;;;23.10;99.80;;;;;;5009841;28;20228;-62
2023/06/11 07:17:39;;;;;;;3.03;2.83;;;23.10;99.90;;;;;;4995159;28;20970;-65
2023/06/11 07:20:07;;;;;;;2.97;2.57;;;23.20;99.50;;;;;;4994870;28;20175;-64
2023/06/11 07:22:33;;;;;;;2.57;2.37;;;23.20;99.50;;;;;;4994534;28;20271;-62
2023/06/11 07:25:00;;;;;;;3.20;3.00;;;23.30;99.00;;;;;;4994649;28;20438;-63
2023/06/11 07:27:26;;;;;;;2.60;2.40;;;23.70;98.80;;;;;;4994588;28;20390;-64
2023/06/11 07:29:52;;;;;;;4.30;4.00;;;24.30;97.80;;;;;;4994857;28;20384;-64
2023/06/11 07:32:18;;;;;;;2.77;2.57;;;24.90;96.80;;;;;;5022346;28;20799;-63
2023/06/11 07:34:43;;;;;;;3.50;3.20;;;25.40;95.90;;;;;;5031298;28;20216;-65
2023/06/11 07:37:09;;;;;;;3.37;3.17;;;25.90;94.90;;;;;;5014786;28;20692;-63
2023/06/11 07:39:35;;;;;;;2.90;2.70;;;26.40;93.70;;;;;;5030337;28;20190;-64
2023/06/11 07:42:01;;;;;;;3.87;3.50;;;27.30;92.90;;;;;;5033737;28;20238;-65
2023/06/11 07:44:27;;;;;;;3.03;2.83;;;28.40;91.30;;;;;;5019205;28;20438;-63
2023/06/11 07:46:52;;;;;;;3.80;3.50;;;29.30;88.30;;;;;;5010126;28;20935;-64
2023/06/11 07:49:18;;;;;;;3.70;3.50;;;30.00;85.60;;;;;;5013000;28;20197;-63
2023/06/11 07:51:45;;;;;;;4.40;4.10;;;30.80;83.40;;;;;;5013800;28;20667;-64
2023/06/11 07:54:11;;;;;;;3.77;3.47;;;31.50;78.00;;;;;;5012665;28;20199;-64
2023/06/11 07:56:37;;;;;;;3.80;3.50;;;31.70;78.00;;;;;;5013846;28;20428;-65
2023/06/11 07:59:03;;;;;;;3.90;3.60;;;32.30;76.90;;;;;;5008449;28;20538;-65
2023/06/11 08:01:29;;;;;;;3.50;3.30;;;32.80;76.20;;;;;;4995910;28;20203;-66
2023/06/11 08:03:54;;;;;;;3.67;3.47;;;32.90;71.70;;;;;;4994977;28;20278;-64
2023/06/11 08:06:20;;;;;;;4.27;3.97;;;32.80;71.80;;;;;;4993620;28;20277;-66
2023/06/11 08:08:47;;;;;;;4.50;4.20;;;33.10;72.20;;;;;;4996011;28;20180;-68
2023/06/11 08:11:13;;;;;;;4.70;4.40;;;33.60;69.20;;;;;;4994017;28;20414;-68
2023/06/11 08:13:40;;;;;;;3.97;3.60;;;34.30;67.20;;;;;;4993999;28;20770;-66
2023/06/11 08:16:07;;;;;;;4.40;4.10;;;34.50;66.00;;;;;;4998215;28;20504;-67
2023/06/11 08:18:33;;;;;;;4.17;3.77;;;34.40;64.90;;;;;;4994957;28;20800;-64
2023/06/11 08:20:58;;;;;;;4.20;3.90;;;34.10;63.00;;;;;;4993901;28;20411;-70
2023/06/11 08:23:25;;;;;;;3.67;3.47;;;33.90;65.00;;;;;;5004085;28;20589;-68
2023/06/11 08:25:50;;;;;;;3.40;3.20;;;33.80;65.70;;;;;;5012227;28;20202;-69
2023/06/11 08:28:16;;;;;;;4.40;4.10;;;33.90;64.00;;;;;;5013145;28;20418;-69
2023/06/11 08:30:41;;;;;;;3.57;3.37;;;34.40;63.40;;;;;;5013557;28;20198;-69
2023/06/11 08:33:08;;;;;;;3.53;3.23;;;34.70;61.90;;;;;;5013048;28;20178;-71
2023/06/11 08:35:33;;;;;;;3.73;3.53;;;35.10;61.00;;;;;;5009732;28;20608;-67
2023/06/11 08:37:59;;;;;;;3.40;3.20;;;35.50;59.60;;;;;;4993735;28;20419;-67
2023/06/11 08:40:25;;;;;;;3.60;3.40;;;35.40;57.90;;;;;;4993926;28;20206;-67
2023/06/11 08:42:51;;;;;;;3.33;3.13;;;35.40;57.60;;;;;;4997160;28;20203;-66
2023/06/11 08:45:17;;;;;;;3.40;3.20;;;35.30;56.70;;;;;;5011252;28;20522;-68
2023/06/11 08:47:49;;;;;;;3.67;3.47;;;35.10;56.50;;;;;;4998435;28;20270;-68
2023/06/11 08:50:16;;;;;;;3.40;3.10;;;35.00;56.90;;;;;;4993807;28;20541;-67
2023/06/11 08:52:42;;;;;;;3.53;3.23;;;34.90;56.90;;;;;;5013988;28;20417;-68
2023/06/11 08:55:08;;;;;;;3.80;3.50;;;35.00;57.90;;;;;;5004836;28;20850;-71
2023/06/11 08:57:34;;;;;;;4.00;3.70;;;35.20;56.50;;;;;;5009105;28;20429;-72
2023/06/11 09:00:00;;;;;;;3.80;3.50;;;35.20;55.50;;;;;;4993626;28;20418;-70
2023/06/11 09:02:25;;;;;;;3.97;3.67;;;34.90;56.20;;;;;;4999491;28;20285;-69
2023/06/11 09:04:51;;;;;;;3.60;3.40;;;34.90;55.60;;;;;;5011875;28;20198;-72
2023/06/11 09:07:26;;;;;;;3.73;3.53;;;35.20;55.90;;;;;;4995965;28;20195;-73
2023/06/11 09:10:08;;;;;;;3.37;3.10;;;35.30;53.40;;;;;;4993616;28;20179;-71
2023/06/11 09:12:34;;;;;;;3.40;3.20;;;35.00;54.30;;;;;;5013300;28;20451;-72
2023/06/11 09:15:00;;;;;;;3.93;3.63;;;35.10;54.00;;;;;;5015891;28;20532;-70
2023/06/11 09:17:36;;;;;;;3.97;3.10;;;35.30;53.50;;;;;;5016470;28;20179;-70
2023/06/11 09:20:07;;;;;;;3.53;3.33;;;35.50;52.00;;;;;;5000224;28;20187;-71
2023/06/11 09:22:35;;;;;;;4.33;3.63;;;35.30;52.80;;;;;;4997145;28;20876;-69
2023/06/11 09:25:09;;;;;;;3.47;3.27;;;35.20;51.80;;;;;;5008469;28;20960;-72
2023/06/11 09:27:36;;;;;;;3.37;3.17;;;35.00;50.80;;;;;;4997329;28;20425;-68
2023/06/11 09:30:13;;;;;;;4.50;3.50;;;35.10;51.80;;;;;;4997148;28;20415;-73
2023/06/11 09:32:42;;;;;;;3.20;3.00;;;35.30;52.00;;;;;;4997078;28;20381;-73
2023/06/11 09:35:09;;;;;;;4.20;3.90;;;35.40;51.50;;;;;;5004000;28;20525;-70
2023/06/11 09:37:51;;;;;;;4.40;4.10;;;35.20;51.20;;;;;;5013449;28;20455;-67
2023/06/11 09:40:19;;;;;;;3.63;3.40;;;35.30;51.40;;;;;;5015117;28;20428;-68
2023/06/11 09:42:46;;;;;;;4.00;3.70;;;35.80;51.10;;;;;;5003642;28;20521;-70
2023/06/11 09:45:19;;;;;;;3.20;3.00;;;35.90;49.30;;;;;;4994694;28;20530;-69
2023/06/11 09:47:46;;;;;;;3.60;3.30;;;36.00;48.80;;;;;;4999929;28;20760;-69
2023/06/11 09:50:17;;;;;;;3.50;3.27;;;36.00;47.90;;;;;;4994850;28;20414;-63
2023/06/11 09:52:44;;;;;;;3.40;3.20;;;35.50;49.10;;;;;;4996856;28;20408;-65
2023/06/11 09:55:11;;;;;;;3.67;3.47;;;35.30;49.20;;;;;;4996285;28;20427;-64
2023/06/11 09:57:42;;;;;;;3.70;3.50;;;35.30;49.20;;;;;;4996541;28;20430;-65
2023/06/11 10:00:11;;;;;;;3.60;3.30;;;35.10;50.00;;;;;;4996576;28;20431;-66
2023/06/11 10:02:38;;;;;;;3.60;3.40;;;35.60;48.70;;;;;;5004339;28;21057;-67
2023/06/11 10:05:06;;;;;;;3.50;3.30;;;35.90;46.90;;;;;;5015189;28;20441;-65
2023/06/11 10:07:38;;;;;;;3.80;3.60;;;35.70;46.80;;;;;;5000591;28;20799;-65
2023/06/11 10:10:06;;;;;;;3.30;3.00;;;35.50;48.30;;;;;;5035733;28;20459;-66
2023/06/11 10:12:33;;;;;;;3.20;3.00;;;35.60;47.50;;;;;;5035545;28;20409;-64
2023/06/11 10:14:59;;;;;;;3.30;3.10;;;35.50;47.40;;;;;;5033706;28;20632;-65
2023/06/11 10:17:25;;;;;;;3.30;3.10;;;35.30;47.00;;;;;;5015701;28;20415;-64
2023/06/11 10:19:51;;;;;;;3.63;3.33;;;35.40;46.80;;;;;;5002037;28;20215;-65
2023/06/11 10:22:31;;;;;;;3.17;2.97;;;35.10;46.10;;;;;;4996087;28;20199;-65
2023/06/11 10:25:00;;;;;;;3.50;3.30;;;34.70;47.10;;;;;;4994747;28;20426;-66
2023/06/11 10:27:37;;;;;;;3.60;3.30;;;34.60;48.00;;;;;;4996001;28;20386;-65
2023/06/11 10:30:06;;;;;;;3.90;3.60;;;34.30;48.70;;;;;;4995784;28;20418;-66
2023/06/11 10:32:32;;;;;;;3.20;3.00;;;33.80;48.90;;;;;;5004250;28;20434;-65
2023/06/11 10:35:07;;;;;;;3.60;3.30;;;33.40;49.50;;;;;;4994315;28;20445;-64
2023/06/11 10:37:41;;;;;;;3.20;3.00;;;33.20;50.50;;;;;;5002582;28;20647;-66
2023/06/11 10:40:08;;;;;;;3.27;3.03;;;32.90;51.20;;;;;;4993599;28;20422;-66
2023/06/11 10:42:35;;;;;;;3.53;3.23;;;32.60;50.80;;;;;;4993551;28;20481;-64
2023/06/11 10:45:06;;;;;;;3.50;3.20;;;32.40;51.30;;;;;;5007566;28;20423;-66
2023/06/11 10:47:45;;;;;;;3.40;3.20;;;32.20;51.40;;;;;;5015174;28;20409;-67
2023/06/11 10:50:13;;;;;;;3.53;3.23;;;32.10;52.40;;;;;;5008605;28;20820;-67
2023/06/11 10:52:56;;;;;;;3.53;3.30;;;31.90;52.10;;;;;;4996519;28;20435;-66
2023/06/11 10:55:26;;;;;;;3.70;3.40;;;31.80;52.70;;;;;;4995317;28;20507;-65
2023/06/11 10:57:52;;;;;;;3.83;3.53;;;31.90;53.10;;;;;;4995654;28;20421;-66
2023/06/11 11:00:18;;;;;;;4.50;4.10;;;32.10;53.80;;;;;;5005682;28;20400;-66
2023/06/11 11:02:44;;;;;;;3.37;3.17;;;32.40;53.40;;;;;;5014962;28;20795;-65
2023/06/11 11:05:10;;;;;;;3.70;3.47;;;32.30;53.10;;;;;;5014258;28;20426;-66
2023/06/11 11:07:36;;;;;;;4.33;4.03;;;32.30;52.70;;;;;;5014864;28;20807;-65
2023/06/11 11:10:06;;;;;;;4.63;4.23;;;32.30;53.00;;;;;;4995503;28;20267;-66
2023/06/11 11:12:38;;;;;;;3.93;3.53;;;32.20;52.80;;;;;;5003708;28;20414;-65
2023/06/11 11:15:05;;;;;;;4.10;3.80;;;31.90;52.80;;;;;;5014338;28;20736;-67
2023/06/11 11:17:30;;;;;;;3.30;3.10;;;31.30;53.80;;;;;;5014762;28;20505;-65
2023/06/11 11:19:57;;;;;;;3.90;3.60;;;30.80;54.00;;;;;;5012392;28;20405;-63
2023/06/11 11:22:26;;;;;;;3.90;3.60;;;30.40;54.70;;;;;;4995210;28;20203;-66
2023/06/11 11:24:52;;;;;;;3.33;3.03;;;30.00;53.70;;;;;;4994696;28;20419;-66
2023/06/11 11:27:22;;;;;;;3.37;3.07;;;29.40;54.80;;;;;;4998148;28;20951;-67
2023/06/11 11:29:47;;;;;;;3.83;3.53;;;29.10;54.80;;;;;;5034080;28;20387;-67
2023/06/11 11:32:13;;;;;;;3.80;3.50;;;28.80;55.80;;;;;;5029082;28;20396;-65
2023/06/11 11:34:40;;;;;;;3.67;3.37;;;28.70;56.50;;;;;;5000176;28;20530;-65
2023/06/11 11:37:06;;;;;;;3.50;3.20;;;28.60;55.80;;;;;;5034194;28;20295;-66
2023/06/11 11:39:32;;;;;;;3.17;2.93;;;28.50;56.00;;;;;;5034179;28;20794;-66
2023/06/11 11:41:59;;;;;;;3.00;2.80;;;28.40;55.70;;;;;;5017828;28;20427;-66
2023/06/11 11:44:25;;;;;;;3.37;3.07;;;28.30;55.80;;;;;;5013315;28;20195;-66
2023/06/11 11:46:57;;;;;;;3.40;3.10;;;28.10;55.50;;;;;;4996868;28;20433;-64
2023/06/11 11:49:30;;;;;;;3.80;3.50;;;27.90;56.00;;;;;;4994436;28;20169;-67
2023/06/11 11:51:57;;;;;;;2.80;2.70;;;27.90;56.30;;;;;;4994876;28;20473;-66
2023/06/11 11:54:23;;;;;;;3.93;3.63;;;27.80;56.50;;;;;;5007941;28;20419;-66
2023/06/11 11:56:57;;;;;;;3.60;3.30;;;27.80;56.70;;;;;;5012872;28;20405;-66
2023/06/11 11:59:23;;;;;;;3.10;2.80;;;27.90;57.90;;;;;;4996724;28;20183;-66
2023/06/11 12:01:59;;;;;;;3.47;3.27;;;27.90;57.60;;;;;;4994266;28;20469;-66
2023/06/11 12:04:44;;;;;;;2.60;2.40;;;27.80;57.70;;;;;;4993804;28;20279;-65
2023/06/11 12:07:19;;;;;;;3.20;3.00;;;27.80;57.50;;;;;;5005534;28;20444;-66
2023/06/11 12:09:44;;;;;;;3.77;3.40;;;27.80;57.10;;;;;;5013678;28;20399;-66
2023/06/11 12:12:10;;;;;;;3.50;2.90;;;27.90;57.90;;;;;;5013657;28;20482;-64
2023/06/11 12:14:37;;;;;;;3.00;2.80;;;27.90;57.30;;;;;;4995056;28;20632;-65
2023/06/11 12:17:03;;;;;;;3.10;2.70;;;27.90;57.00;;;;;;4994119;28;20375;-64
2023/06/11 12:19:31;;;;;;;3.77;3.47;;;27.90;56.80;;;;;;4998874;28;20390;-65
2023/06/11 12:21:56;;;;;;;4.63;3.60;;;27.90;57.10;;;;;;5013544;28;20972;-68
2023/06/11 12:24:22;;;;;;;3.10;2.90;;;28.00;57.00;;;;;;5013054;28;20434;-66
2023/06/11 12:26:49;;;;;;;2.87;2.67;;;28.00;56.40;;;;;;5012310;28;20646;-66
2023/06/11 12:29:18;;;;;;;2.73;2.53;;;28.00;56.90;;;;;;5012677;28;20899;-65
2023/06/11 12:31:46;;;;;;;3.50;3.20;;;28.00;56.50;;;;;;5005217;28;20901;-66
2023/06/11 12:34:15;;;;;;;3.27;3.07;;;28.00;57.30;;;;;;4993700;28;20451;-67
2023/06/11 12:36:45;;;;;;;3.00;2.73;;;28.00;56.60;;;;;;4993924;28;20787;-65
2023/06/11 12:39:10;;;;;;;4.30;3.90;;;28.00;57.60;;;;;;4993813;28;20379;-66
2023/06/11 12:41:37;;;;;;;5.13;4.23;;;28.00;56.60;;;;;;5000681;28;20533;-65
2023/06/11 12:44:05;;;;;;;3.17;2.87;;;28.00;57.30;;;;;;5006317;28;20421;-65
2023/06/11 12:46:31;;;;;;;3.50;3.20;;;28.00;56.10;;;;;;5013550;28;20467;-65
2023/06/11 12:48:57;;;;;;;3.17;2.97;;;27.80;56.00;;;;;;5016097;28;20502;-65
2023/06/11 12:51:22;;;;;;;2.50;2.40;;;27.70;56.10;;;;;;5017519;28;20532;-65
2023/06/11 12:53:51;;;;;;;3.00;2.80;;;27.70;56.20;;;;;;5010020;28;20484;-66
2023/06/11 12:56:17;;;;;;;3.80;3.50;;;27.70;56.00;;;;;;4997523;28;20180;-64
2023/06/11 12:58:42;;;;;;;3.60;3.30;;;27.70;56.70;;;;;;4997744;28;20411;-65
2023/06/11 13:01:08;;;;;;;3.40;3.10;;;27.80;56.90;;;;;;5003570;28;20204;-65
2023/06/11 13:03:35;;;;;;;3.70;3.40;;;27.90;56.80;;;;;;5011892;28;20199;-64
2023/06/11 13:06:01;;;;;;;3.47;3.17;;;28.00;56.30;;;;;;5011592;28;20452;-66
2023/06/11 13:08:26;;;;;;;4.07;3.37;;;28.10;56.00;;;;;;5017696;28;20410;-65
2023/06/11 13:10:52;;;;;;;3.03;2.83;;;28.10;56.30;;;;;;5016857;28;20178;-69
2023/06/11 13:13:19;;;;;;;3.60;3.33;;;28.20;56.20;;;;;;5003665;28;20515;-66
2023/06/11 13:15:45;;;;;;;3.53;3.23;;;28.20;56.20;;;;;;4998386;28;20206;-65
2023/06/11 13:18:14;;;;;;;3.20;2.90;;;28.20;55.90;;;;;;4999395;28;20391;-66
2023/06/11 13:20:40;;;;;;;3.30;3.10;;;28.10;55.80;;;;;;5001191;28;20399;-65
2023/06/11 13:23:06;;;;;;;3.00;2.80;;;28.20;55.90;;;;;;5000749;28;20945;-67
2023/06/11 13:25:32;;;;;;;3.07;2.77;;;28.20;55.70;;;;;;4997049;28;20437;-66
2023/06/11 13:27:57;;;;;;;2.80;2.60;;;28.30;54.70;;;;;;4997273;28;20179;-65
2023/06/11 13:30:23;;;;;;;2.90;2.70;;;28.30;54.70;;;;;;4997264;28;20862;-66
2023/06/11 13:32:49;;;;;;;3.30;3.00;;;28.40;54.50;;;;;;4997203;28;20200;-65
2023/06/11 13:35:14;;;;;;;3.97;3.57;;;28.50;55.10;;;;;;5010441;28;20203;-67
2023/06/11 13:37:40;;;;;;;3.30;3.10;;;28.40;54.90;;;;;;5036323;28;20264;-66
2023/06/11 13:40:07;;;;;;;3.50;3.30;;;28.50;55.40;;;;;;5029836;28;20277;-68
2023/06/11 13:42:32;;;;;;;3.27;2.97;;;28.40;54.80;;;;;;5004127;28;20561;-64
2023/06/11 13:45:02;;;;;;;3.77;3.47;;;28.30;55.20;;;;;;4996497;28;20432;-67
2023/06/11 13:47:28;;;;;;;3.53;3.30;;;28.20;55.40;;;;;;5004771;28;20184;-65
2023/06/11 13:49:53;;;;;;;4.73;4.23;;;28.00;54.90;;;;;;5016462;28;20439;-68
2023/06/11 13:52:19;;;;;;;3.60;3.27;;;27.90;55.70;;;;;;5016448;28;20418;-64
2023/06/11 13:54:44;;;;;;;4.20;3.60;;;27.70;56.10;;;;;;5000073;28;20234;-66
2023/06/11 13:57:10;;;;;;;3.03;2.80;;;27.70;56.10;;;;;;4996527;28;20218;-66
2023/06/11 13:59:37;;;;;;;3.53;2.97;;;27.70;56.20;;;;;;4996355;28;20188;-67
2023/06/11 14:02:03;;;;;;;3.20;2.90;;;27.70;54.60;;;;;;4996926;28;20204;-64
2023/06/11 14:04:28;;;;;;;3.27;2.97;;;27.80;55.30;;;;;;5013340;28;20762;-66
2023/06/11 14:06:54;;;;;;;4.43;3.17;;;27.80;55.10;;;;;;5015923;28;20767;-66
2023/06/11 14:09:20;;;;;;;2.80;2.60;;;27.80;54.70;;;;;;5014765;28;20514;-65
2023/06/11 14:11:45;;;;;;;3.30;3.00;;;27.70;55.60;;;;;;4996186;28;20187;-65
2023/06/11 14:14:12;;;;;;;3.37;3.10;;;27.80;55.30;;;;;;4995692;28;20200;-65
2023/06/11 14:16:38;;;;;;;3.33;3.10;;;27.80;55.30;;;;;;4996156;28;20226;-66
2023/06/11 14:19:05;;;;;;;3.50;3.30;;;27.90;55.70;;;;;;4995983;28;20381;-66
2023/06/11 14:21:30;;;;;;;3.20;3.00;;;27.90;55.50;;;;;;4995528;28;20473;-65
2023/06/11 14:23:56;;;;;;;3.70;3.40;;;28.00;55.20;;;;;;5001756;28;20920;-66
2023/06/11 14:26:21;;;;;;;2.97;2.77;;;28.00;54.80;;;;;;4995776;28;20211;-66
2023/06/11 14:28:47;;;;;;;4.17;3.33;;;27.90;54.80;;;;;;4995918;28;20179;-67
2023/06/11 14:31:12;;;;;;;2.73;2.53;;;28.00;55.50;;;;;;4996026;28;20222;-66
2023/06/11 14:33:38;;;;;;;3.00;2.80;;;28.00;55.60;;;;;;4995429;28;20669;-67
2023/06/11 14:36:05;;;;;;;2.87;2.67;;;28.00;54.00;;;;;;5000342;28;20554;-66
2023/06/11 14:38:32;;;;;;;3.83;3.50;;;27.90;54.20;;;;;;5014552;28;20174;-66
2023/06/11 14:40:58;;;;;;;3.20;2.90;;;27.80;54.70;;;;;;5015228;28;20917;-66
2023/06/11 14:43:23;;;;;;;3.23;2.97;;;27.90;55.30;;;;;;5014893;28;20415;-65
2023/06/11 14:45:49;;;;;;;4.03;3.63;;;27.90;55.10;;;;;;4995828;28;20209;-63
2023/06/11 14:48:15;;;;;;;3.10;2.83;;;27.90;55.90;;;;;;4995670;28;20199;-66
2023/06/11 14:50:40;;;;;;;3.73;3.43;;;28.00;56.30;;;;;;4997561;28;20169;-63
2023/06/11 14:53:07;;;;;;;3.73;3.43;;;28.10;56.10;;;;;;5005438;28;20181;-65
2023/06/11 14:55:33;;;;;;;3.67;2.97;;;28.10;55.20;;;;;;4999819;28;20598;-65
2023/06/11 14:57:59;;;;;;;3.43;3.13;;;28.10;54.50;;;;;;5024371;28;20433;-67
2023/06/11 15:00:24;;;;;;;3.73;3.43;;;28.00;54.00;;;;;;4999403;28;20215;-64
2023/06/11 15:02:50;;;;;;;3.40;3.20;;;27.80;54.20;;;;;;5000734;28;20282;-66
2023/06/11 15:05:16;;;;;;;3.30;3.00;;;27.70;54.90;;;;;;4994789;28;20286;-66
2023/06/11 15:07:41;;;;;;;3.13;2.93;;;27.70;55.50;;;;;;4995146;28;20179;-67
2023/06/11 15:10:09;;;;;;;2.63;2.43;;;27.70;55.20;;;;;;4995229;28;20175;-67
2023/06/11 15:12:35;;;;;;;2.33;2.23;;;27.80;54.40;;;;;;4994844;28;20195;-65
2023/06/11 15:15:00;;;;;;;6.73;2.70;;;27.70;54.90;;;;;;5001552;28;20455;-66
2023/06/11 15:17:29;;;;;;;4.30;3.37;;;27.70;55.30;;;;;;4994940;28;20179;-64
2023/06/11 15:19:57;;;;;;;3.00;2.70;;;27.70;55.20;;;;;;4995256;28;20180;-69
2023/06/11 15:22:23;;;;;;;3.13;2.83;;;27.70;54.90;;;;;;5003400;28;20462;-68
2023/06/11 15:24:48;;;;;;;3.30;3.00;;;27.70;54.80;;;;;;5010108;28;20434;-66
2023/06/11 15:27:17;;;;;;;3.73;3.50;;;27.80;54.00;;;;;;5012578;28;20167;-69
2023/06/11 15:29:43;;;;;;;3.00;2.80;;;27.80;53.50;;;;;;4994917;28;20219;-67
2023/06/11 15:32:09;;;;;;;3.17;2.87;;;27.70;53.40;;;;;;4995657;28;20406;-67
2023/06/11 15:34:34;;;;;;;2.90;2.50;;;27.70;53.40;;;;;;5008935;28;20446;-65
2023/06/11 15:37:00;;;;;;;2.87;2.70;;;27.70;53.40;;;;;;5014829;28;20222;-66
2023/06/11 15:39:26;;;;;;;3.37;3.10;;;27.70;53.00;;;;;;5014900;28;20181;-65
2023/06/11 15:41:53;;;;;;;2.97;2.67;;;27.70;53.50;;;;;;5013789;28;20277;-65
2023/06/11 15:44:19;;;;;;;3.07;2.77;;;27.60;52.80;;;;;;4997805;28;20206;-67
2023/06/11 15:46:45;;;;;;;3.00;2.70;;;27.50;53.30;;;;;;4994395;28;20933;-66
2023/06/11 15:49:11;;;;;;;3.40;3.10;;;27.50;53.80;;;;;;5007094;28;20660;-66
2023/06/11 15:51:38;;;;;;;3.20;3.00;;;27.50;53.90;;;;;;5000767;28;20703;-67
2023/06/11 15:54:04;;;;;;;2.73;2.53;;;27.40;53.50;;;;;;5035064;28;20440;-66
2023/06/11 15:56:30;;;;;;;3.37;3.07;;;27.40;53.40;;;;;;5026138;28;20422;-67
2023/06/11 15:58:55;;;;;;;2.77;2.60;;;27.40;53.30;;;;;;5020359;28;20392;-66
2023/06/11 16:01:21;;;;;;;3.43;3.13;;;27.40;54.00;;;;;;5025464;28;20680;-68
2023/06/11 16:03:47;;;;;;;3.63;3.33;;;27.40;54.70;;;;;;5022644;28;20167;-68
2023/06/11 16:06:12;;;;;;;3.30;2.97;;;27.40;54.20;;;;;;5018975;28;20199;-67
2023/06/11 16:08:38;;;;;;;2.40;2.30;;;27.50;54.50;;;;;;5020697;28;20175;-67
2023/06/11 16:11:03;;;;;;;3.17;2.97;;;27.50;54.80;;;;;;5021050;28;20174;-66
2023/06/11 16:13:29;;;;;;;3.33;3.10;;;27.50;54.70;;;;;;5023701;28;20190;-67
2023/06/11 16:15:54;;;;;;;3.43;3.23;;;27.50;54.40;;;;;;5021052;28;20261;-66
2023/06/11 16:18:20;;;;;;;3.00;2.80;;;27.60;54.20;;;;;;5019100;28;20231;-65
2023/06/11 16:20:46;;;;;;;3.77;3.30;;;27.50;54.40;;;;;;5021476;28;20650;-67
2023/06/11 16:23:11;;;;;;;4.67;3.73;;;27.50;53.90;;;;;;5022510;28;20546;-67
2023/06/11 16:25:37;;;;;;;3.30;3.10;;;27.40;54.20;;;;;;5023308;28;20192;-66
2023/06/11 16:28:03;;;;;;;4.03;3.37;;;27.40;53.80;;;;;;5021052;28;20205;-66
2023/06/11 16:30:29;;;;;;;3.90;3.60;;;27.30;53.90;;;;;;5021766;28;20249;-68
2023/06/11 16:32:55;;;;;;;3.20;2.93;;;27.30;54.30;;;;;;5007699;28;20183;-69
2023/06/11 16:35:20;;;;;;;3.00;2.80;;;27.30;54.20;;;;;;5018956;28;20772;-68
2023/06/11 16:37:46;;;;;;;5.00;4.60;;;27.20;53.90;;;;;;5001000;28;20183;-67
2023/06/11 16:40:12;;;;;;;4.03;3.70;;;27.20;54.40;;;;;;5000078;28;20179;-67
2023/06/11 16:42:38;;;;;;;3.13;2.93;;;27.20;54.20;;;;;;5012408;28;20604;-66
2023/06/11 16:45:04;;;;;;;3.30;3.07;;;27.20;53.80;;;;;;5012234;28;20785;-67
2023/06/11 16:47:30;;;;;;;3.33;3.03;;;27.10;53.50;;;;;;5019892;28;20251;-69
2023/06/11 16:49:58;;;;;;;3.00;2.80;;;27.10;53.30;;;;;;5005810;28;20793;-70